Time,TemperatureF,DewpointF,PressureIn,WindDirection,WindDirectionDegrees,WindSpeedMPH,WindSpeedGustMPH,Humidity,HourlyPrecipIn,Conditions,Clouds,dailyrainin,SoftwareType,DateUTC
2013-08-22 00:01:00,77.6,76.4,30.07,ESE,121,0.0,33.0,96,0.00,,---,0.00,VWS V12.08,2013-08-22 04:01:00,
2013-08-22 00:02:00,77.6,76.4,30.07,ESE,121,0.0,33.0,96,0.00,,---,0.00,VWS V12.08,2013-08-22 04:02:00,
2013-08-22 00:07:00,77.5,76.3,30.08,ESE,121,0.0,33.0,96,0.00,,---,0.00,VWS V12.08,2013-08-22 04:07:00,
2013-08-22 00:12:00,77.5,76.3,30.08,ESE,121,0.0,33.0,96,0.00,,---,0.00,VWS V12.08,2013-08-22 04:12:00,
2013-08-22 00:17:00,77.5,76.3,30.08,ESE,121,0.0,33.0,96,0.00,,---,0.00,VWS V12.08,2013-08-22 04:17:00,
2013-08-22 00:22:00,77.4,76.2,30.07,ESE,121,0.0,33.0,96,0.00,,---,0.00,VWS V12.08,2013-08-22 04:22:00,
2013-08-22 00:27:00,77.4,76.2,30.07,ESE,121,0.0,33.0,96,0.00,,---,0.00,VWS V12.08,2013-08-22 04:27:00,
2013-08-22 00:32:00,77.3,76.1,30.07,ESE,121,0.0,33.0,96,0.00,,---,0.00,VWS V12.08,2013-08-22 04:32:00,
2013-08-22 00:37:00,77.3,76.1,30.07,ESE,121,0.0,33.0,96,0.00,,---,0.00,VWS V12.08,2013-08-22 04:37:00,
2013-08-22 00:42:00,77.2,76.0,30.07,ESE,121,0.0,33.0,96,0.00,,---,0.00,VWS V12.08,2013-08-22 04:42:00,
2013-08-22 00:47:00,77.1,75.9,30.07,ESE,121,0.0,33.0,96,0.00,,---,0.00,VWS V12.08,2013-08-22 04:47:00,
2013-08-22 00:52:00,77.1,75.9,30.07,ESE,121,0.0,33.0,96,0.00,,---,0.00,VWS V12.08,2013-08-22 04:52:00,
2013-08-22 00:57:00,77.1,75.9,30.07,ESE,121,0.0,33.0,96,0.00,,---,0.00,VWS V12.08,2013-08-22 04:57:00,
2013-08-22 01:02:00,77.1,75.9,30.07,ESE,121,0.0,33.0,96,0.00,,---,0.00,VWS V12.08,2013-08-22 05:02:00,
2013-08-22 01:07:00,77.1,75.9,30.06,ESE,121,0.0,33.0,96,0.00,,---,0.00,VWS V12.08,2013-08-22 05:07:00,
2013-08-22 01:12:00,77.0,75.8,30.06,ESE,121,0.0,33.0,96,0.00,,---,0.00,VWS V12.08,2013-08-22 05:12:00,
2013-08-22 01:17:00,76.9,75.7,30.06,ESE,121,0.0,33.0,96,0.00,,---,0.00,VWS V12.08,2013-08-22 05:17:00,
2013-08-22 01:22:00,76.9,75.7,30.07,ESE,121,0.0,33.0,96,0.00,,---,0.00,VWS V12.08,2013-08-22 05:22:00,
2013-08-22 01:27:00,76.8,75.6,30.06,ESE,121,0.0,33.0,96,0.00,,---,0.00,VWS V12.08,2013-08-22 05:27:00,
2013-08-22 01:32:00,76.8,75.6,30.06,ESE,121,0.0,33.0,96,0.00,,---,0.00,VWS V12.08,2013-08-22 05:32:00,
2013-08-22 01:37:00,76.7,75.5,30.06,ESE,121,0.0,33.0,96,0.00,,---,0.00,VWS V12.08,2013-08-22 05:37:00,
2013-08-22 01:42:00,76.7,75.5,30.06,ESE,121,0.0,33.0,96,0.00,,---,0.00,VWS V12.08,2013-08-22 05:42:00,
2013-08-22 01:47:00,76.8,75.6,30.06,ESE,121,0.0,33.0,96,0.00,,---,0.00,VWS V12.08,2013-08-22 05:47:00,
2013-08-22 01:52:00,76.9,75.7,30.06,ESE,121,0.0,33.0,96,0.00,,---,0.00,VWS V12.08,2013-08-22 05:52:00,
2013-08-22 01:57:00,77.0,75.8,30.06,ESE,121,0.0,33.0,96,0.00,,---,0.00,VWS V12.08,2013-08-22 05:57:00,
2013-08-22 02:02:00,77.0,75.8,30.05,ESE,121,0.0,33.0,96,0.00,,---,0.00,VWS V12.08,2013-08-22 06:02:00,
2013-08-22 02:07:00,77.1,75.9,30.05,ESE,121,0.0,33.0,96,0.00,,---,0.00,VWS V12.08,2013-08-22 06:07:00,
2013-08-22 02:12:00,77.1,75.9,30.05,ESE,121,0.0,33.0,96,0.00,,---,0.00,VWS V12.08,2013-08-22 06:12:00,
2013-08-22 02:17:00,77.1,75.9,30.05,ESE,121,0.0,33.0,96,0.00,,---,0.00,VWS V12.08,2013-08-22 06:17:00,
2013-08-22 02:22:00,77.2,76.0,30.05,ESE,121,0.0,33.0,96,0.00,,---,0.00,VWS V12.08,2013-08-22 06:22:00,
2013-08-22 02:27:00,77.2,76.0,30.06,ESE,121,0.0,33.0,96,0.00,,---,0.00,VWS V12.08,2013-08-22 06:27:00,
2013-08-22 02:32:00,77.1,75.9,30.06,ESE,121,0.0,33.0,96,0.00,,---,0.00,VWS V12.08,2013-08-22 06:32:00,
2013-08-22 02:37:00,77.1,75.9,30.05,ESE,121,0.0,33.0,96,0.00,,---,0.00,VWS V12.08,2013-08-22 06:37:00,
2013-08-22 02:42:00,77.1,75.9,30.05,ESE,121,0.0,33.0,96,0.00,,---,0.00,VWS V12.08,2013-08-22 06:42:00,
2013-08-22 02:47:00,77.1,75.9,30.05,ESE,121,0.0,33.0,96,0.00,,---,0.00,VWS V12.08,2013-08-22 06:47:00,
2013-08-22 02:52:00,77.1,75.9,30.05,ESE,121,0.0,33.0,96,0.00,,---,0.00,VWS V12.08,2013-08-22 06:52:00,
2013-08-22 02:57:00,77.1,75.9,30.05,ESE,121,0.0,33.0,96,0.00,,---,0.00,VWS V12.08,2013-08-22 06:57:00,
2013-08-22 03:02:00,77.1,75.9,30.06,ESE,121,0.0,33.0,96,0.00,,---,0.00,VWS V12.08,2013-08-22 07:02:00,
2013-08-22 03:07:00,77.1,75.9,30.06,ESE,121,0.0,33.0,96,0.00,,---,0.00,VWS V12.08,2013-08-22 07:07:00,
2013-08-22 03:12:00,77.1,75.9,30.06,ESE,121,0.0,33.0,96,0.00,,---,0.00,VWS V12.08,2013-08-22 07:12:00,
2013-08-22 03:17:00,77.0,75.8,30.05,ESE,121,0.0,33.0,96,0.00,,---,0.00,VWS V12.08,2013-08-22 07:17:00,
2013-08-22 03:22:00,77.0,75.8,30.05,ESE,121,0.0,33.0,96,0.00,,---,0.00,VWS V12.08,2013-08-22 07:22:00,
2013-08-22 03:27:00,77.0,75.8,30.05,ESE,121,0.0,33.0,96,0.00,,---,0.00,VWS V12.08,2013-08-22 07:27:00,
2013-08-22 03:32:00,77.0,75.8,30.04,ESE,121,0.0,33.0,96,0.00,,---,0.00,VWS V12.08,2013-08-22 07:32:00,
2013-08-22 03:37:00,77.0,75.8,30.04,ESE,121,0.0,33.0,96,0.00,,---,0.00,VWS V12.08,2013-08-22 07:37:00,
2013-08-22 03:42:00,77.0,76.1,30.04,ESE,121,0.0,33.0,97,0.00,,---,0.00,VWS V12.08,2013-08-22 07:42:00,
2013-08-22 03:47:00,77.0,75.8,30.04,ESE,121,0.0,33.0,96,0.00,,---,0.00,VWS V12.08,2013-08-22 07:47:00,
2013-08-22 03:52:00,77.0,75.8,30.04,ESE,121,0.0,33.0,96,0.00,,---,0.00,VWS V12.08,2013-08-22 07:52:00,
2013-08-22 03:57:00,77.0,75.8,30.04,ESE,121,0.0,33.0,96,0.00,,---,0.00,VWS V12.08,2013-08-22 07:57:00,
2013-08-22 04:02:00,77.0,75.8,30.04,ESE,121,0.0,33.0,96,0.00,,---,0.00,VWS V12.08,2013-08-22 08:02:00,
2013-08-22 04:07:00,77.0,75.8,30.03,ESE,121,0.0,33.0,96,0.00,,---,0.00,VWS V12.08,2013-08-22 08:07:00,
2013-08-22 04:12:00,76.9,75.7,30.03,ESE,121,0.0,33.0,96,0.00,,---,0.00,VWS V12.08,2013-08-22 08:12:00,
2013-08-22 04:17:00,76.9,75.7,30.03,ESE,121,0.0,33.0,96,0.00,,---,0.00,VWS V12.08,2013-08-22 08:17:00,
2013-08-22 04:22:00,76.8,75.6,30.02,ESE,121,0.0,33.0,96,0.00,,---,0.00,VWS V12.08,2013-08-22 08:22:00,
2013-08-22 04:27:00,76.7,75.5,30.02,ESE,121,0.0,33.0,96,0.00,,---,0.00,VWS V12.08,2013-08-22 08:27:00,
2013-08-22 04:32:00,76.6,75.4,30.02,ESE,121,0.0,33.0,96,0.00,,---,0.00,VWS V12.08,2013-08-22 08:32:00,
2013-08-22 04:37:00,76.5,75.3,30.02,ESE,121,0.0,33.0,96,0.00,,---,0.00,VWS V12.08,2013-08-22 08:37:00,
2013-08-22 04:42:00,76.5,75.6,30.02,ESE,121,0.0,33.0,97,0.00,,---,0.00,VWS V12.08,2013-08-22 08:42:00,
2013-08-22 04:47:00,76.5,75.6,30.02,ESE,121,0.0,33.0,97,0.00,,---,0.00,VWS V12.08,2013-08-22 08:47:00,
2013-08-22 04:52:00,76.4,75.5,30.02,ESE,121,0.0,33.0,97,0.00,,---,0.00,VWS V12.08,2013-08-22 08:52:00,
2013-08-22 04:57:00,76.4,75.5,30.01,ESE,121,0.0,33.0,97,0.00,,---,0.00,VWS V12.08,2013-08-22 08:57:00,
2013-08-22 05:02:00,76.6,75.7,30.02,ESE,121,0.0,33.0,97,0.00,,---,0.00,VWS V12.08,2013-08-22 09:02:00,
2013-08-22 05:07:00,76.7,75.8,30.02,ESE,121,0.0,33.0,97,0.00,,---,0.00,VWS V12.08,2013-08-22 09:07:00,
2013-08-22 05:12:00,76.7,75.8,30.02,ESE,121,0.0,33.0,97,0.00,,---,0.00,VWS V12.08,2013-08-22 09:12:00,
2013-08-22 05:17:00,76.8,75.9,30.02,ESE,121,0.0,33.0,97,0.00,,---,0.00,VWS V12.08,2013-08-22 09:17:00,
2013-08-22 05:22:00,76.9,76.0,30.02,ESE,121,0.0,33.0,97,0.00,,---,0.00,VWS V12.08,2013-08-22 09:22:00,
2013-08-22 05:27:00,76.9,76.0,30.02,ESE,121,0.0,33.0,97,0.00,,---,0.00,VWS V12.08,2013-08-22 09:27:00,
2013-08-22 05:32:00,77.0,76.1,30.02,ESE,121,0.0,33.0,97,0.00,,---,0.00,VWS V12.08,2013-08-22 09:32:00,
2013-08-22 05:37:00,77.0,76.1,30.02,ESE,121,0.0,33.0,97,0.00,,---,0.00,VWS V12.08,2013-08-22 09:37:00,
2013-08-22 05:42:00,77.1,76.2,30.02,ESE,121,0.0,33.0,97,0.00,,---,0.00,VWS V12.08,2013-08-22 09:42:00,
2013-08-22 05:47:00,77.1,76.2,30.02,ESE,121,0.0,33.0,97,0.00,,---,0.00,VWS V12.08,2013-08-22 09:47:00,
2013-08-22 05:52:00,77.1,76.2,30.02,ESE,121,0.0,33.0,97,0.00,,---,0.00,VWS V12.08,2013-08-22 09:52:00,
2013-08-22 05:57:00,77.1,76.2,30.02,ESE,121,0.0,33.0,97,0.00,,---,0.00,VWS V12.08,2013-08-22 09:57:00,
2013-08-22 06:02:00,77.1,76.2,30.03,ESE,121,0.0,33.0,97,0.00,,---,0.00,VWS V12.08,2013-08-22 10:02:00,
2013-08-22 06:07:00,77.1,76.2,30.02,ESE,121,0.0,33.0,97,0.00,,---,0.00,VWS V12.08,2013-08-22 10:07:00,
2013-08-22 06:12:00,77.0,76.1,30.03,ESE,121,0.0,33.0,97,0.00,,---,0.00,VWS V12.08,2013-08-22 10:12:00,
2013-08-22 06:17:00,76.9,76.0,30.03,ESE,121,0.0,33.0,97,0.00,,---,0.00,VWS V12.08,2013-08-22 10:17:00,
2013-08-22 06:22:00,76.9,76.0,30.03,ESE,121,0.0,33.0,97,0.00,,---,0.00,VWS V12.08,2013-08-22 10:22:00,
2013-08-22 06:27:00,76.9,76.0,30.03,ESE,121,0.0,33.0,97,0.00,,---,0.00,VWS V12.08,2013-08-22 10:27:00,
2013-08-22 06:32:00,76.8,75.9,30.03,ESE,121,0.0,33.0,97,0.00,,---,0.00,VWS V12.08,2013-08-22 10:32:00,
2013-08-22 06:37:00,76.8,75.9,30.03,ESE,121,0.0,33.0,97,0.00,,---,0.00,VWS V12.08,2013-08-22 10:37:00,
2013-08-22 06:42:00,76.8,75.9,30.03,ESE,121,0.0,33.0,97,0.00,,---,0.00,VWS V12.08,2013-08-22 10:42:00,
2013-08-22 06:47:00,76.8,75.9,30.03,ESE,121,0.0,33.0,97,0.00,,---,0.00,VWS V12.08,2013-08-22 10:47:00,
2013-08-22 08:27:00,78.2,77.3,30.06,ESE,121,0.0,33.0,97,0.00,,---,0.00,VWS V12.08,2013-08-22 12:27:00,
2013-08-22 08:32:00,78.3,77.4,30.06,ESE,121,0.0,33.0,97,0.00,,---,0.00,VWS V12.08,2013-08-22 12:32:00,
2013-08-22 08:37:00,78.4,77.5,30.06,ESE,121,0.0,33.0,97,0.00,,---,0.00,VWS V12.08,2013-08-22 12:37:00,
2013-08-22 08:42:00,78.5,77.6,30.07,ESE,121,0.0,33.0,97,0.00,,---,0.00,VWS V12.08,2013-08-22 12:42:00,
2013-08-22 08:47:00,78.7,77.5,30.07,SE,140,0.0,33.0,96,0.00,,---,0.00,VWS V12.08,2013-08-22 12:47:00,
2013-08-22 08:52:00,78.8,77.6,30.07,SE,140,0.0,33.0,96,0.00,,---,0.00,VWS V12.08,2013-08-22 12:52:00,
2013-08-22 08:57:00,78.9,77.7,30.07,SE,140,0.0,33.0,96,0.00,,---,0.00,VWS V12.08,2013-08-22 12:57:00,
2013-08-22 09:00:00,78.9,77.7,30.07,SE,140,0.0,33.0,96,0.00,,---,0.00,VWS V12.08,2013-08-22 13:00:00,
2013-08-22 09:05:00,79.1,77.9,30.07,SE,140,0.0,33.0,96,0.00,,---,0.00,VWS V12.08,2013-08-22 13:05:00,
2013-08-22 09:10:00,79.6,78.4,30.07,SE,140,0.0,33.0,96,0.00,,---,0.00,VWS V12.08,2013-08-22 13:10:00,
2013-08-22 09:15:00,80.0,78.4,30.07,SE,140,0.0,33.0,95,0.00,,---,0.00,VWS V12.08,2013-08-22 13:15:00,
2013-08-22 09:20:00,80.6,79.0,30.07,SE,140,4.0,33.0,95,0.00,,---,0.00,VWS V12.08,2013-08-22 13:20:00,
2013-08-22 09:25:00,81.4,79.5,30.08,SE,140,5.0,33.0,94,0.00,,---,0.00,VWS V12.08,2013-08-22 13:25:00,
2013-08-22 09:30:00,82.1,80.2,30.08,SE,140,4.0,33.0,94,0.00,,---,0.00,VWS V12.08,2013-08-22 13:30:00,
2013-08-22 09:35:00,82.5,79.9,30.07,SE,140,0.0,33.0,92,0.00,,---,0.00,VWS V12.08,2013-08-22 13:35:00,
2013-08-22 09:40:00,82.9,80.3,30.08,SE,140,5.0,33.0,92,0.00,,---,0.00,VWS V12.08,2013-08-22 13:40:00,
2013-08-22 09:45:00,83.2,80.3,30.08,SE,140,0.0,33.0,91,0.00,,---,0.00,VWS V12.08,2013-08-22 13:45:00,
2013-08-22 09:50:00,83.5,80.6,30.08,SE,140,0.0,33.0,91,0.00,,---,0.00,VWS V12.08,2013-08-22 13:50:00,
2013-08-22 09:55:00,83.8,80.6,30.08,ESE,117,0.0,33.0,90,0.00,,---,0.00,VWS V12.08,2013-08-22 13:55:00,
2013-08-22 10:00:00,84.0,80.1,30.08,ESE,115,5.0,33.0,88,0.00,,---,0.00,VWS V12.08,2013-08-22 14:00:00,
2013-08-22 10:05:00,84.5,80.9,30.08,ESE,120,2.0,33.0,89,0.00,,---,0.00,VWS V12.08,2013-08-22 14:05:00,
2013-08-22 10:10:00,84.6,80.3,30.08,ESE,115,0.0,33.0,87,0.00,,---,0.00,VWS V12.08,2013-08-22 14:10:00,
2013-08-22 10:15:00,84.3,80.4,30.08,ESE,113,0.0,33.0,88,0.00,,---,0.00,VWS V12.08,2013-08-22 14:15:00,
2013-08-22 10:20:00,84.6,80.7,30.08,ESE,105,0.0,33.0,88,0.00,,---,0.00,VWS V12.08,2013-08-22 14:20:00,
2013-08-22 10:25:00,84.5,80.2,30.07,ESE,109,0.0,33.0,87,0.00,,---,0.00,VWS V12.08,2013-08-22 14:25:00,
2013-08-22 10:30:00,84.3,80.0,30.07,ESE,109,0.0,33.0,87,0.00,,---,0.00,VWS V12.08,2013-08-22 14:30:00,
2013-08-22 10:35:00,84.1,79.8,30.07,ESE,108,1.0,33.0,87,0.00,,---,0.00,VWS V12.08,2013-08-22 14:35:00,
2013-08-22 10:40:00,84.4,80.1,30.07,ESE,108,0.0,33.0,87,0.00,,---,0.00,VWS V12.08,2013-08-22 14:40:00,
2013-08-22 10:45:00,85.0,80.0,30.07,ESE,109,0.0,33.0,85,0.00,,---,0.00,VWS V12.08,2013-08-22 14:45:00,
2013-08-22 10:50:00,85.2,80.2,30.07,ESE,109,0.0,33.0,85,0.00,,---,0.00,VWS V12.08,2013-08-22 14:50:00,
2013-08-22 10:55:00,85.6,80.2,30.07,East,86,0.0,33.0,84,0.00,,---,0.00,VWS V12.08,2013-08-22 14:55:00,
2013-08-22 11:00:00,86.1,80.7,30.07,East,86,0.0,33.0,84,0.00,,---,0.00,VWS V12.08,2013-08-22 15:00:00,
2013-08-22 11:05:00,86.8,80.7,30.07,SE,125,0.0,33.0,82,0.00,,---,0.00,VWS V12.08,2013-08-22 15:05:00,
2013-08-22 11:10:00,87.5,80.6,30.06,South,179,4.0,33.0,80,0.00,,---,0.00,VWS V12.08,2013-08-22 15:10:00,
2013-08-22 11:15:00,88.0,80.7,30.06,South,179,0.0,33.0,79,0.00,,---,0.00,VWS V12.08,2013-08-22 15:15:00,
2013-08-22 11:20:00,88.2,80.9,30.06,South,177,0.0,33.0,79,0.00,,---,0.00,VWS V12.08,2013-08-22 15:20:00,
2013-08-22 11:25:00,88.1,80.0,30.06,SSE,156,2.0,33.0,77,0.00,,---,0.00,VWS V12.08,2013-08-22 15:25:00,
2013-08-22 11:30:00,87.9,79.8,30.06,SSE,156,1.0,33.0,77,0.00,,---,0.00,VWS V12.08,2013-08-22 15:30:00,
2013-08-22 11:35:00,88.1,80.8,30.05,SSE,156,0.0,33.0,79,0.00,,---,0.00,VWS V12.08,2013-08-22 15:35:00,
2013-08-22 11:40:00,88.5,80.8,30.05,SSE,155,0.0,33.0,78,0.00,,---,0.00,VWS V12.08,2013-08-22 15:40:00,
2013-08-22 11:45:00,89.1,80.1,30.04,South,170,4.0,33.0,75,0.00,,---,0.00,VWS V12.08,2013-08-22 15:45:00,
2013-08-22 11:50:00,89.4,80.8,30.04,SSE,166,2.0,33.0,76,0.00,,---,0.00,VWS V12.08,2013-08-22 15:50:00,
2013-08-22 11:55:00,89.4,80.4,30.04,South,177,5.0,33.0,75,0.00,,---,0.00,VWS V12.08,2013-08-22 15:55:00,
2013-08-22 12:00:00,89.0,79.6,30.03,South,172,2.0,33.0,74,0.00,,---,0.00,VWS V12.08,2013-08-22 16:00:00,
2013-08-22 12:05:00,89.1,80.1,30.03,SSE,159,4.0,33.0,75,0.00,,---,0.00,VWS V12.08,2013-08-22 16:05:00,
2013-08-22 12:10:00,89.3,79.9,30.04,SE,142,5.0,33.0,74,0.00,,---,0.00,VWS V12.08,2013-08-22 16:10:00,
2013-08-22 12:15:00,89.3,79.9,30.04,SE,127,1.0,33.0,74,0.00,,---,0.00,VWS V12.08,2013-08-22 16:15:00,
2013-08-22 12:20:00,89.0,80.1,30.04,SE,132,2.0,33.0,75,0.00,,---,0.00,VWS V12.08,2013-08-22 16:20:00,
2013-08-22 12:25:00,88.8,80.3,30.04,SE,125,2.0,33.0,76,0.00,,---,0.00,VWS V12.08,2013-08-22 16:25:00,
2013-08-22 12:30:00,89.0,80.1,30.03,SE,125,2.0,33.0,75,0.00,,---,0.00,VWS V12.08,2013-08-22 16:30:00,
2013-08-22 12:35:00,89.6,80.6,30.03,ESE,115,0.0,33.0,75,0.00,,---,0.00,VWS V12.08,2013-08-22 16:35:00,
2013-08-22 12:40:00,89.8,80.0,30.03,ESE,115,1.0,33.0,73,0.00,,---,0.00,VWS V12.08,2013-08-22 16:40:00,
2013-08-22 12:45:00,89.9,79.2,30.03,ESE,115,0.0,33.0,71,0.00,,---,0.00,VWS V12.08,2013-08-22 16:45:00,
2013-08-22 12:50:00,89.9,80.1,30.02,ESE,115,1.0,33.0,73,0.00,,---,0.00,VWS V12.08,2013-08-22 16:50:00,
2013-08-22 12:55:00,89.3,79.9,30.02,ESE,115,0.0,33.0,74,0.00,,---,0.00,VWS V12.08,2013-08-22 16:55:00,
2013-08-22 13:00:00,89.2,80.2,30.02,ESE,112,6.0,33.0,75,0.00,,---,0.00,VWS V12.08,2013-08-22 17:00:00,
2013-08-22 13:05:00,89.5,80.1,30.02,East,90,0.0,33.0,74,0.00,,---,0.00,VWS V12.08,2013-08-22 17:05:00,
2013-08-22 13:10:00,89.7,79.9,30.02,ESE,111,6.0,33.0,73,0.00,,---,0.00,VWS V12.08,2013-08-22 17:10:00,
2013-08-22 13:15:00,89.8,80.0,30.01,ESE,111,5.0,33.0,73,0.00,,---,0.00,VWS V12.08,2013-08-22 17:15:00,
2013-08-22 13:20:00,89.9,80.1,30.01,ESE,110,12.0,33.0,73,0.00,,---,0.00,VWS V12.08,2013-08-22 17:20:00,
2013-08-22 13:25:00,89.9,79.7,30.01,ESE,110,7.0,33.0,72,0.00,,---,0.00,VWS V12.08,2013-08-22 17:25:00,
2013-08-22 13:30:00,90.1,79.9,30.01,East,84,4.0,33.0,72,0.00,,---,0.00,VWS V12.08,2013-08-22 17:30:00,
2013-08-22 13:35:00,90.0,79.8,30.02,ESE,119,16.0,33.0,72,0.00,,---,0.00,VWS V12.08,2013-08-22 17:35:00,
2013-08-22 13:40:00,89.3,79.1,30.02,ESE,113,20.0,33.0,72,0.00,,---,0.00,VWS V12.08,2013-08-22 17:40:00,
2013-08-22 13:45:00,86.9,78.0,30.03,ESE,113,21.0,33.0,75,0.00,,---,0.00,VWS V12.08,2013-08-22 17:45:00,
2013-08-22 13:50:00,84.8,77.2,30.03,SE,136,11.0,33.0,78,0.00,,---,0.00,VWS V12.08,2013-08-22 17:50:00,
2013-08-22 13:55:00,82.5,76.4,30.03,ESE,123,13.0,33.0,82,0.00,,---,0.00,VWS V12.08,2013-08-22 17:55:00,
2013-08-22 14:00:00,81.0,75.7,30.03,East,97,5.0,33.0,84,0.00,,---,0.00,VWS V12.08,2013-08-22 18:00:00,
2013-08-22 14:05:00,79.9,75.3,30.03,SE,132,9.0,33.0,86,0.00,,---,0.00,VWS V12.08,2013-08-22 18:05:00,
2013-08-22 14:10:00,78.8,74.3,30.03,SE,130,2.0,33.0,86,0.00,,---,0.00,VWS V12.08,2013-08-22 18:10:00,
2013-08-22 14:15:00,78.4,74.2,30.04,SE,130,0.0,33.0,87,0.00,,---,0.00,VWS V12.08,2013-08-22 18:15:00,
2013-08-22 14:20:00,78.0,73.8,30.04,SE,130,0.0,33.0,87,0.00,,---,0.00,VWS V12.08,2013-08-22 18:20:00,
2013-08-22 14:25:00,77.8,73.6,30.04,SE,130,0.0,33.0,87,0.00,,---,0.00,VWS V12.08,2013-08-22 18:25:00,
2013-08-22 14:30:00,77.6,73.4,30.04,SE,130,0.0,33.0,87,0.00,,---,0.00,VWS V12.08,2013-08-22 18:30:00,
2013-08-22 14:35:00,77.4,72.9,30.04,SE,130,0.0,33.0,86,0.00,,---,0.00,VWS V12.08,2013-08-22 18:35:00,
2013-08-22 14:40:00,77.4,73.2,30.05,SE,130,0.0,33.0,87,0.00,,---,0.00,VWS V12.08,2013-08-22 18:40:00,
2013-08-22 14:45:00,77.0,72.5,30.06,ENE,74,0.0,33.0,86,0.00,,---,0.00,VWS V12.08,2013-08-22 18:45:00,
2013-08-22 14:50:00,76.9,72.7,30.06,NNE,22,3.0,33.0,87,0.00,,---,0.00,VWS V12.08,2013-08-22 18:50:00,
2013-08-22 14:55:00,76.8,72.6,30.05,North,5,3.0,33.0,87,0.00,,---,0.00,VWS V12.08,2013-08-22 18:55:00,
2013-08-22 15:00:00,76.8,73.0,30.04,North,360,3.0,33.0,88,0.00,,---,0.00,VWS V12.08,2013-08-22 19:00:00,
2013-08-22 15:05:00,76.6,72.8,30.03,NNE,16,6.0,33.0,88,0.00,,---,0.00,VWS V12.08,2013-08-22 19:05:00,
2013-08-22 15:10:00,76.2,72.7,30.02,North,5,2.0,33.0,89,0.00,,---,0.00,VWS V12.08,2013-08-22 19:10:00,
2013-08-22 15:15:00,75.8,72.3,30.03,North,9,6.0,33.0,89,0.00,,---,0.00,VWS V12.08,2013-08-22 19:15:00,
2013-08-22 15:20:00,75.6,72.5,30.03,NNE,22,5.0,33.0,90,0.00,,---,0.00,VWS V12.08,2013-08-22 19:20:00,
2013-08-22 15:25:00,75.5,72.4,30.04,North,355,4.0,33.0,90,0.00,,---,0.00,VWS V12.08,2013-08-22 19:25:00,
2013-08-22 15:30:00,75.4,72.6,30.04,North,355,0.0,33.0,91,0.00,,---,0.00,VWS V12.08,2013-08-22 19:30:00,
2013-08-22 15:35:00,75.4,72.9,30.04,North,355,5.0,33.0,92,0.00,,---,0.00,VWS V12.08,2013-08-22 19:35:00,
2013-08-22 15:40:00,75.3,72.8,30.04,North,355,7.0,33.0,92,0.00,,---,0.00,VWS V12.08,2013-08-22 19:40:00,
2013-08-22 15:45:00,75.2,72.7,30.05,North,355,0.0,33.0,92,0.00,,---,0.00,VWS V12.08,2013-08-22 19:45:00,
2013-08-22 15:50:00,75.2,73.0,30.05,North,355,0.0,33.0,93,0.00,,---,0.00,VWS V12.08,2013-08-22 19:50:00,
2013-08-22 15:55:00,75.1,72.9,30.04,North,9,2.0,33.0,93,0.00,,---,0.00,VWS V12.08,2013-08-22 19:55:00,
2013-08-22 16:00:00,74.9,72.7,30.04,North,355,0.0,33.0,93,0.00,,---,0.00,VWS V12.08,2013-08-22 20:00:00,
2013-08-22 16:05:00,74.9,72.7,30.03,North,5,3.0,33.0,93,0.00,,---,0.00,VWS V12.08,2013-08-22 20:05:00,
2013-08-22 16:10:00,74.8,72.6,30.02,NNE,17,3.0,33.0,93,0.00,,---,0.00,VWS V12.08,2013-08-22 20:10:00,
2013-08-22 16:15:00,74.8,72.6,30.02,NNE,17,0.0,33.0,93,0.00,,---,0.00,VWS V12.08,2013-08-22 20:15:00,
2013-08-22 16:20:00,74.8,72.6,30.01,North,5,5.0,33.0,93,0.00,,---,0.00,VWS V12.08,2013-08-22 20:20:00,
2013-08-22 16:25:00,74.8,73.0,30.01,NNE,24,0.0,33.0,94,0.00,,---,0.00,VWS V12.08,2013-08-22 20:25:00,
2013-08-22 16:30:00,74.7,72.9,30.01,NE,34,0.0,33.0,94,0.00,,---,0.00,VWS V12.08,2013-08-22 20:30:00,
2013-08-22 16:35:00,74.8,73.0,30.01,NNE,12,0.0,33.0,94,0.00,,---,0.00,VWS V12.08,2013-08-22 20:35:00,
2013-08-22 16:40:00,74.8,73.0,30.01,NE,35,5.0,33.0,94,0.00,,---,0.00,VWS V12.08,2013-08-22 20:40:00,
2013-08-22 16:45:00,74.9,73.1,30.01,NE,35,0.0,33.0,94,0.00,,---,0.00,VWS V12.08,2013-08-22 20:45:00,
2013-08-22 16:50:00,74.9,73.1,30.01,NE,39,0.0,33.0,94,0.00,,---,0.00,VWS V12.08,2013-08-22 20:50:00,
2013-08-22 16:55:00,75.1,73.6,30.01,East,98,4.0,33.0,95,0.00,,---,0.00,VWS V12.08,2013-08-22 20:55:00,
2013-08-22 17:00:00,75.3,73.8,30.02,East,98,0.0,33.0,95,0.00,,---,0.00,VWS V12.08,2013-08-22 21:00:00,
2013-08-22 17:05:00,75.5,74.0,30.02,East,93,0.0,33.0,95,0.00,,---,0.00,VWS V12.08,2013-08-22 21:05:00,
2013-08-22 17:10:00,75.8,74.3,30.03,East,88,0.0,33.0,95,0.00,,---,0.00,VWS V12.08,2013-08-22 21:10:00,
2013-08-22 17:15:00,76.0,74.5,30.03,East,98,0.0,33.0,95,0.00,,---,0.00,VWS V12.08,2013-08-22 21:15:00,
2013-08-22 17:20:00,76.1,74.6,30.02,East,97,0.0,33.0,95,0.00,,---,0.00,VWS V12.08,2013-08-22 21:20:00,
2013-08-22 17:25:00,76.2,74.3,30.03,ESE,105,7.0,33.0,94,0.00,,---,0.00,VWS V12.08,2013-08-22 21:25:00,
2013-08-22 17:30:00,76.2,74.3,30.02,ESE,105,0.0,33.0,94,0.00,,---,0.00,VWS V12.08,2013-08-22 21:30:00,
2013-08-22 17:35:00,76.2,74.3,30.01,ESE,106,0.0,33.0,94,0.00,,---,0.00,VWS V12.08,2013-08-22 21:35:00,
2013-08-22 17:40:00,76.2,74.3,30.01,ESE,105,0.0,33.0,94,0.00,,---,0.00,VWS V12.08,2013-08-22 21:40:00,
2013-08-22 17:45:00,76.3,74.4,30.01,ESE,105,0.0,33.0,94,0.00,,---,0.00,VWS V12.08,2013-08-22 21:45:00,
2013-08-22 17:50:00,76.2,74.3,30.01,ESE,105,0.0,33.0,94,0.00,,---,0.00,VWS V12.08,2013-08-22 21:50:00,
2013-08-22 17:55:00,76.2,74.3,30.01,ESE,105,0.0,33.0,94,0.00,,---,0.00,VWS V12.08,2013-08-22 21:55:00,
2013-08-22 18:00:00,76.2,74.3,30.01,ESE,105,0.0,33.0,94,0.00,,---,0.00,VWS V12.08,2013-08-22 22:00:00,
2013-08-22 18:05:00,76.2,74.3,30.00,ESE,105,0.0,33.0,94,0.00,,---,0.00,VWS V12.08,2013-08-22 22:05:00,
2013-08-22 18:10:00,76.2,74.3,30.00,ESE,105,0.0,33.0,94,0.00,,---,0.00,VWS V12.08,2013-08-22 22:10:00,
2013-08-22 18:15:00,76.2,74.3,30.00,ESE,105,0.0,33.0,94,0.00,,---,0.00,VWS V12.08,2013-08-22 22:15:00,
2013-08-22 18:20:00,76.3,74.4,30.00,ESE,105,0.0,33.0,94,0.00,,---,0.00,VWS V12.08,2013-08-22 22:20:00,
2013-08-22 18:25:00,76.3,74.4,30.00,ESE,105,0.0,33.0,94,0.00,,---,0.00,VWS V12.08,2013-08-22 22:25:00,
2013-08-22 18:30:00,76.3,74.4,30.00,ESE,105,0.0,33.0,94,0.00,,---,0.00,VWS V12.08,2013-08-22 22:30:00,
2013-08-22 18:35:00,76.3,74.8,30.00,ESE,105,0.0,33.0,95,0.00,,---,0.00,VWS V12.08,2013-08-22 22:35:00,
2013-08-22 18:40:00,76.4,74.9,29.99,ESE,105,0.0,33.0,95,0.00,,---,0.00,VWS V12.08,2013-08-22 22:40:00,
2013-08-22 18:45:00,76.4,74.9,29.99,ESE,105,0.0,33.0,95,0.00,,---,0.00,VWS V12.08,2013-08-22 22:45:00,
2013-08-22 18:50:00,76.5,75.0,29.99,ESE,105,0.0,33.0,95,0.00,,---,0.00,VWS V12.08,2013-08-22 22:50:00,
2013-08-22 18:55:00,76.5,75.0,29.99,ESE,105,0.0,33.0,95,0.00,,---,0.00,VWS V12.08,2013-08-22 22:55:00,
2013-08-22 19:00:00,76.4,74.9,29.99,ESE,107,0.0,33.0,95,0.00,,---,0.00,VWS V12.08,2013-08-22 23:00:00,
2013-08-22 19:05:00,76.4,74.9,29.98,ESE,107,0.0,33.0,95,0.00,,---,0.00,VWS V12.08,2013-08-22 23:05:00,
2013-08-22 19:10:00,76.5,75.0,29.98,ESE,107,0.0,33.0,95,0.00,,---,0.00,VWS V12.08,2013-08-22 23:10:00,
2013-08-22 19:15:00,76.5,75.0,29.99,ESE,107,0.0,33.0,95,0.00,,---,0.00,VWS V12.08,2013-08-22 23:15:00,
2013-08-22 19:20:00,76.4,74.9,29.99,ESE,107,0.0,33.0,95,0.00,,---,0.00,VWS V12.08,2013-08-22 23:20:00,
2013-08-22 19:25:00,76.4,74.9,29.99,ESE,107,0.0,33.0,95,0.00,,---,0.00,VWS V12.08,2013-08-22 23:25:00,
2013-08-22 19:30:00,76.4,74.9,30.00,ESE,107,0.0,33.0,95,0.00,,---,0.00,VWS V12.08,2013-08-22 23:30:00,
2013-08-22 19:35:00,76.4,74.9,30.00,ESE,107,0.0,33.0,95,0.00,,---,0.00,VWS V12.08,2013-08-22 23:35:00,
2013-08-22 19:40:00,76.5,75.0,30.01,ESE,107,0.0,33.0,95,0.00,,---,0.00,VWS V12.08,2013-08-22 23:40:00,
2013-08-22 19:45:00,76.5,75.0,30.01,ESE,107,0.0,33.0,95,0.00,,---,0.00,VWS V12.08,2013-08-22 23:45:00,
2013-08-22 19:50:00,76.5,75.0,30.01,ESE,107,4.0,33.0,95,0.00,,---,0.00,VWS V12.08,2013-08-22 23:50:00,
2013-08-22 19:55:00,76.4,74.9,30.01,ESE,107,0.0,33.0,95,0.00,,---,0.00,VWS V12.08,2013-08-22 23:55:00,
2013-08-22 20:00:00,76.3,74.8,30.00,ESE,107,0.0,33.0,95,0.00,,---,0.00,VWS V12.08,2013-08-23 00:00:00,
2013-08-22 20:05:00,76.2,74.7,30.01,ESE,107,0.0,33.0,95,0.00,,---,0.00,VWS V12.08,2013-08-23 00:05:00,
2013-08-22 20:10:00,76.2,74.7,30.01,ESE,107,0.0,33.0,95,0.00,,---,0.00,VWS V12.08,2013-08-23 00:10:00,
2013-08-22 20:15:00,76.2,74.7,30.00,ESE,107,0.0,33.0,95,0.00,,---,0.00,VWS V12.08,2013-08-23 00:15:00,
2013-08-22 20:20:00,76.1,74.6,30.00,ESE,107,0.0,33.0,95,0.00,,---,0.00,VWS V12.08,2013-08-23 00:20:00,
2013-08-22 20:25:00,76.1,74.6,30.00,ESE,107,0.0,33.0,95,0.00,,---,0.00,VWS V12.08,2013-08-23 00:25:00,
2013-08-22 20:30:00,76.1,74.6,30.00,ESE,107,0.0,33.0,95,0.00,,---,0.00,VWS V12.08,2013-08-23 00:30:00,
2013-08-22 20:35:00,76.1,74.6,30.00,ESE,107,0.0,33.0,95,0.00,,---,0.00,VWS V12.08,2013-08-23 00:35:00,
2013-08-22 20:40:00,76.0,74.5,30.00,ESE,107,0.0,33.0,95,0.00,,---,0.00,VWS V12.08,2013-08-23 00:40:00,
2013-08-22 20:45:00,76.0,74.5,30.00,ESE,107,0.0,33.0,95,0.00,,---,0.00,VWS V12.08,2013-08-23 00:45:00,
2013-08-22 20:50:00,75.9,74.4,29.99,ESE,107,0.0,33.0,95,0.00,,---,0.00,VWS V12.08,2013-08-23 00:50:00,
2013-08-22 20:55:00,75.9,74.4,29.99,ESE,107,0.0,33.0,95,0.00,,---,0.00,VWS V12.08,2013-08-23 00:55:00,
2013-08-22 21:00:00,75.8,74.3,29.99,ESE,107,0.0,33.0,95,0.00,,---,0.00,VWS V12.08,2013-08-23 01:00:00,
2013-08-22 21:05:00,75.8,74.3,29.99,ESE,107,0.0,33.0,95,0.00,,---,0.00,VWS V12.08,2013-08-23 01:05:00,
2013-08-22 21:10:00,75.8,74.6,29.99,ESE,107,0.0,33.0,96,0.00,,---,0.00,VWS V12.08,2013-08-23 01:10:00,
2013-08-22 21:15:00,75.8,74.6,29.99,ESE,107,0.0,33.0,96,0.00,,---,0.00,VWS V12.08,2013-08-23 01:15:00,
2013-08-22 21:20:00,75.8,74.6,29.99,ESE,107,0.0,33.0,96,0.00,,---,0.00,VWS V12.08,2013-08-23 01:20:00,
2013-08-22 21:25:00,75.7,74.5,29.99,ESE,107,0.0,33.0,96,0.00,,---,0.00,VWS V12.08,2013-08-23 01:25:00,
2013-08-22 21:30:00,75.7,74.5,29.99,ESE,107,0.0,33.0,96,0.00,,---,0.00,VWS V12.08,2013-08-23 01:30:00,
2013-08-22 21:35:00,75.6,74.4,29.99,ESE,107,0.0,33.0,96,0.00,,---,0.00,VWS V12.08,2013-08-23 01:35:00,
2013-08-22 21:40:00,75.6,74.4,29.99,ESE,107,0.0,33.0,96,0.00,,---,0.00,VWS V12.08,2013-08-23 01:40:00,
2013-08-22 21:45:00,75.7,74.5,29.99,ESE,107,0.0,33.0,96,0.00,,---,0.00,VWS V12.08,2013-08-23 01:45:00,
2013-08-22 21:50:00,75.6,74.4,29.99,ESE,107,0.0,33.0,96,0.00,,---,0.00,VWS V12.08,2013-08-23 01:50:00,
2013-08-22 21:55:00,75.6,74.1,30.00,ESE,107,0.0,33.0,95,0.00,,---,0.00,VWS V12.08,2013-08-23 01:55:00,
2013-08-22 22:00:00,75.5,74.3,29.99,ESE,107,0.0,33.0,96,0.00,,---,0.00,VWS V12.08,2013-08-23 02:00:00,
2013-08-22 22:05:00,75.5,74.3,29.99,ESE,107,0.0,33.0,96,0.00,,---,0.00,VWS V12.08,2013-08-23 02:05:00,
2013-08-22 22:10:00,75.4,74.2,30.00,ESE,107,0.0,33.0,96,0.00,,---,0.00,VWS V12.08,2013-08-23 02:10:00,
2013-08-22 22:15:00,75.4,74.2,30.00,ESE,107,0.0,33.0,96,0.00,,---,0.00,VWS V12.08,2013-08-23 02:15:00,
2013-08-22 22:20:00,75.4,74.2,30.00,ESE,107,0.0,33.0,96,0.00,,---,0.00,VWS V12.08,2013-08-23 02:20:00,
2013-08-22 22:25:00,75.4,74.2,30.00,ESE,107,0.0,33.0,96,0.00,,---,0.00,VWS V12.08,2013-08-23 02:25:00,
2013-08-22 22:30:00,75.5,74.3,30.00,ESE,107,0.0,33.0,96,0.00,,---,0.00,VWS V12.08,2013-08-23 02:30:00,
2013-08-22 22:35:00,75.4,74.2,30.00,ESE,107,0.0,33.0,96,0.00,,---,0.00,VWS V12.08,2013-08-23 02:35:00,
2013-08-22 22:40:00,75.4,74.2,30.00,ESE,107,0.0,33.0,96,0.00,,---,0.00,VWS V12.08,2013-08-23 02:40:00,
2013-08-22 22:45:00,75.4,74.2,30.00,ESE,107,0.0,33.0,96,0.00,,---,0.00,VWS V12.08,2013-08-23 02:45:00,
2013-08-22 22:50:00,75.5,74.3,30.01,ESE,107,0.0,33.0,96,0.00,,---,0.00,VWS V12.08,2013-08-23 02:50:00,
2013-08-22 22:55:00,75.5,74.3,30.01,ESE,107,0.0,33.0,96,0.00,,---,0.00,VWS V12.08,2013-08-23 02:55:00,
2013-08-22 23:00:00,75.5,74.3,30.01,ESE,107,0.0,33.0,96,0.00,,---,0.00,VWS V12.08,2013-08-23 03:00:00,
2013-08-22 23:05:00,75.5,74.3,30.01,ESE,107,0.0,33.0,96,0.00,,---,0.00,VWS V12.08,2013-08-23 03:05:00,
2013-08-22 23:10:00,75.5,74.3,30.00,ESE,107,0.0,33.0,96,0.00,,---,0.00,VWS V12.08,2013-08-23 03:10:00,
2013-08-22 23:15:00,75.5,74.3,30.00,ESE,107,0.0,33.0,96,0.00,,---,0.00,VWS V12.08,2013-08-23 03:15:00,
2013-08-22 23:20:00,75.5,74.3,30.01,ESE,107,0.0,33.0,96,0.00,,---,0.00,VWS V12.08,2013-08-23 03:20:00,
2013-08-22 23:25:00,75.5,74.3,30.01,ESE,107,0.0,33.0,96,0.00,,---,0.00,VWS V12.08,2013-08-23 03:25:00,
2013-08-22 23:30:00,75.5,74.3,30.01,ESE,107,0.0,33.0,96,0.00,,---,0.00,VWS V12.08,2013-08-23 03:30:00,
2013-08-22 23:35:00,75.5,74.3,30.01,ESE,107,0.0,33.0,96,0.00,,---,0.00,VWS V12.08,2013-08-23 03:35:00,
2013-08-22 23:40:00,75.5,74.3,30.01,ESE,107,0.0,33.0,96,0.00,,---,0.00,VWS V12.08,2013-08-23 03:40:00,
2013-08-22 23:45:00,75.5,74.3,30.01,ESE,107,0.0,33.0,96,0.00,,---,0.00,VWS V12.08,2013-08-23 03:45:00,
2013-08-22 23:50:00,75.4,74.2,30.01,ESE,107,0.0,33.0,96,0.00,,---,0.00,VWS V12.08,2013-08-23 03:50:00,
2013-08-22 23:55:00,75.4,74.2,30.01,ESE,107,0.0,33.0,96,0.00,,---,0.00,VWS V12.08,2013-08-23 03:55:00,